createdAt,value
2019-04-29T00:00:54.942Z,4.15
2019-04-29T00:01:55.276Z,4.15
2019-04-29T00:02:55.706Z,4.14
2019-04-29T00:03:56.034Z,4.14
2019-04-29T00:04:56.579Z,4.11
2019-04-29T00:05:56.832Z,4.11
2019-04-29T00:06:57.321Z,4.13
2019-04-29T00:07:57.641Z,4.12
2019-04-29T00:08:58.043Z,4.10
2019-04-29T00:09:58.356Z,4.08
2019-04-29T00:10:58.887Z,4.08
2019-04-29T00:11:58.636Z,4.06
2019-04-29T00:12:59.051Z,4.06
2019-04-29T00:13:58.943Z,4.05
2019-04-29T00:14:59.388Z,4.03
2019-04-29T00:15:59.505Z,4.00
2019-04-29T00:16:59.994Z,3.97
2019-04-29T00:18:00.064Z,3.95
2019-04-29T00:19:00.312Z,3.94
2019-04-29T00:20:00.218Z,3.92
2019-04-29T00:21:00.893Z,3.90
2019-04-29T00:22:00.940Z,3.87
2019-04-29T00:23:01.410Z,3.87
2019-04-29T00:24:03.900Z,3.87
2019-04-29T00:25:01.854Z,3.86
2019-04-29T00:26:01.888Z,3.84
2019-04-29T00:27:02.440Z,3.82
2019-04-29T00:28:02.530Z,3.80
2019-04-29T00:29:02.368Z,3.77
2019-04-29T00:30:03.025Z,3.73
2019-04-29T00:31:03.220Z,3.73
2019-04-29T00:32:03.259Z,3.73
2019-04-29T00:33:03.505Z,3.72
2019-04-29T00:34:03.687Z,3.72
2019-04-29T00:35:03.601Z,3.73
2019-04-29T00:36:04.198Z,3.72
2019-04-29T00:37:04.236Z,3.72
2019-04-29T00:38:04.368Z,3.72
2019-04-29T00:39:04.501Z,3.72
2019-04-29T00:40:04.953Z,3.70
2019-04-29T00:41:04.884Z,3.71
2019-04-29T00:42:05.060Z,3.72
2019-04-29T00:43:05.291Z,3.74
2019-04-29T00:44:05.751Z,3.75
2019-04-29T00:45:05.837Z,3.74
2019-04-29T00:46:06.229Z,3.71
2019-04-29T00:47:06.474Z,3.68
2019-04-29T00:48:07.017Z,3.66
2019-04-29T00:49:07.214Z,3.64
2019-04-29T00:50:07.701Z,3.63
2019-04-29T00:51:07.936Z,3.59
2019-04-29T00:52:08.183Z,3.55
2019-04-29T00:53:08.967Z,3.52
2019-04-29T00:54:12.148Z,3.50
2019-04-29T00:55:09.175Z,3.49
2019-04-29T00:56:09.511Z,3.50
2019-04-29T00:57:09.725Z,3.51
2019-04-29T00:58:09.936Z,3.51
2019-04-29T00:59:10.307Z,3.50
2019-04-29T01:00:10.777Z,3.47
2019-04-29T01:01:11.099Z,3.46
2019-04-29T01:02:11.440Z,3.45
2019-04-29T01:03:11.320Z,3.45
2019-04-29T01:04:11.617Z,3.42
2019-04-29T01:05:11.986Z,3.42
2019-04-29T01:06:12.211Z,3.40
2019-04-29T01:07:12.849Z,3.40
2019-04-29T01:08:12.987Z,3.38
2019-04-29T01:09:12.962Z,3.38
2019-04-29T01:10:13.364Z,3.37
2019-04-29T01:11:13.539Z,3.35
2019-04-29T01:12:13.774Z,3.31
2019-04-29T01:13:14.048Z,3.30
2019-04-29T01:14:14.479Z,3.30
2019-04-29T01:15:14.868Z,3.28
2019-04-29T01:16:14.994Z,3.25
2019-04-29T01:17:15.228Z,3.23
2019-04-29T01:18:15.657Z,3.22
2019-04-29T01:19:15.861Z,3.21
2019-04-29T01:20:16.637Z,3.20
2019-04-29T01:21:16.452Z,3.18
2019-04-29T01:22:16.998Z,3.16
2019-04-29T01:23:16.800Z,3.13
2019-04-29T01:24:17.189Z,3.11
2019-04-29T01:25:17.430Z,3.11
2019-04-29T01:26:17.908Z,3.10
2019-04-29T01:27:17.980Z,3.09
2019-04-29T01:28:17.964Z,3.07
2019-04-29T01:29:18.315Z,3.08
2019-04-29T01:30:18.547Z,3.07
2019-04-29T01:31:18.885Z,3.05
2019-04-29T01:32:18.793Z,3.02
2019-04-29T01:33:19.267Z,3.02
2019-04-29T01:34:19.733Z,3.01
2019-04-29T01:35:19.757Z,3.02
2019-04-29T01:36:20.053Z,3.01
2019-04-29T01:37:20.150Z,2.99
2019-04-29T01:38:20.876Z,2.99
2019-04-29T01:39:21.314Z,2.99
2019-04-29T01:40:21.823Z,2.99
2019-04-29T01:41:21.957Z,2.97
2019-04-29T01:42:21.901Z,2.94
2019-04-29T01:43:22.056Z,2.88
2019-04-29T01:44:22.325Z,2.84
2019-04-29T01:45:22.581Z,2.83
2019-04-29T01:46:22.848Z,2.84
2019-04-29T01:47:23.128Z,2.87
2019-04-29T01:48:23.088Z,2.86
2019-04-29T01:49:23.547Z,2.88
2019-04-29T01:50:23.892Z,2.88
2019-04-29T01:51:24.132Z,2.88
2019-04-29T01:52:24.405Z,2.88
2019-04-29T01:53:24.633Z,2.87
2019-04-29T01:54:24.956Z,2.85
2019-04-29T01:55:25.439Z,2.83
2019-04-29T01:56:25.960Z,2.83
2019-04-29T01:57:25.923Z,2.82
2019-04-29T01:58:26.161Z,2.82
2019-04-29T01:59:26.488Z,2.81
2019-04-29T02:00:26.620Z,2.80
2019-04-29T02:01:27.066Z,2.78
2019-04-29T02:02:27.316Z,2.76
2019-04-29T02:03:27.788Z,2.74
2019-04-29T02:04:28.021Z,2.72
2019-04-29T02:05:28.232Z,2.69
2019-04-29T02:06:28.655Z,2.69
2019-04-29T02:07:28.918Z,2.65
2019-04-29T02:08:29.173Z,2.62
2019-04-29T02:09:29.430Z,2.61
2019-04-29T02:10:29.735Z,2.61
2019-04-29T02:11:30.122Z,2.58
2019-04-29T02:12:30.611Z,2.56
2019-04-29T02:13:30.831Z,2.55
2019-04-29T02:14:31.067Z,2.53
2019-04-29T02:15:31.366Z,2.52
2019-04-29T02:16:31.720Z,2.51
2019-04-29T02:17:31.988Z,2.51
2019-04-29T02:18:32.252Z,2.48
2019-04-29T02:19:32.676Z,2.45
2019-04-29T02:20:33.196Z,2.44
2019-04-29T02:21:32.986Z,2.42
2019-04-29T02:22:33.389Z,2.41
2019-04-29T02:23:33.773Z,2.40
2019-04-29T02:24:34.067Z,2.39
2019-04-29T02:25:34.231Z,2.39
2019-04-29T02:26:34.536Z,2.37
2019-04-29T02:27:35.006Z,2.36
2019-04-29T02:28:35.414Z,2.36
2019-04-29T02:29:35.845Z,2.34
2019-04-29T02:30:36.095Z,2.34
2019-04-29T02:31:36.513Z,2.33
2019-04-29T02:32:36.475Z,2.32
2019-04-29T02:33:36.604Z,2.31
2019-04-29T02:34:37.024Z,2.31
2019-04-29T02:35:37.267Z,2.29
2019-04-29T02:36:37.627Z,2.28
2019-04-29T02:37:37.893Z,2.25
2019-04-29T02:38:38.338Z,2.28
2019-04-29T02:39:38.357Z,2.27
2019-04-29T02:40:38.560Z,2.28
2019-04-29T02:41:38.840Z,2.25
2019-04-29T02:42:38.978Z,2.25
2019-04-29T02:43:38.985Z,2.25
2019-04-29T02:44:39.266Z,2.26
2019-04-29T02:45:39.677Z,2.23
2019-04-29T02:46:40.088Z,2.24
2019-04-29T02:47:40.399Z,2.23
2019-04-29T02:48:40.840Z,2.23
2019-04-29T02:49:41.056Z,2.21
2019-04-29T02:50:41.357Z,2.21
2019-04-29T02:51:41.705Z,2.20
2019-04-29T02:52:42.390Z,2.20
2019-04-29T02:53:42.490Z,2.19
2019-04-29T02:54:42.344Z,2.19
2019-04-29T02:55:42.896Z,2.20
2019-04-29T02:56:42.963Z,2.18
2019-04-29T02:57:42.923Z,2.18
2019-04-29T02:58:43.104Z,2.17
2019-04-29T02:59:43.223Z,2.17
2019-04-29T03:00:43.238Z,2.17
2019-04-29T03:01:43.731Z,2.17
2019-04-29T03:02:44.023Z,2.16
2019-04-29T03:03:44.102Z,2.18
2019-04-29T03:04:44.608Z,2.16
2019-04-29T03:05:44.901Z,2.15
2019-04-29T03:06:45.509Z,2.14
2019-04-29T03:07:46.017Z,2.15
2019-04-29T03:08:46.062Z,2.16
2019-04-29T03:09:45.903Z,2.16
2019-04-29T03:10:46.146Z,2.15
2019-04-29T03:11:46.397Z,2.13
2019-04-29T03:12:46.628Z,2.12
2019-04-29T03:13:46.860Z,2.11
2019-04-29T03:14:47.083Z,2.11
2019-04-29T03:15:47.857Z,2.11
2019-04-29T03:16:47.743Z,2.11
2019-04-29T03:17:47.975Z,2.11
2019-04-29T03:18:48.251Z,2.11
2019-04-29T03:19:48.289Z,2.10
2019-04-29T03:20:48.264Z,2.11
2019-04-29T03:21:48.610Z,2.10
2019-04-29T03:22:48.918Z,2.09
2019-04-29T03:23:49.147Z,2.10
2019-04-29T03:24:49.426Z,2.10
2019-04-29T03:25:50.001Z,2.08
2019-04-29T03:26:49.659Z,2.08
2019-04-29T03:27:49.902Z,2.07
2019-04-29T03:28:50.122Z,2.08
2019-04-29T03:29:50.758Z,2.07
2019-04-29T03:30:51.302Z,2.07
2019-04-29T03:31:50.986Z,2.05
2019-04-29T03:32:51.246Z,2.05
2019-04-29T03:33:51.348Z,2.06
2019-04-29T03:34:51.618Z,2.07
2019-04-29T03:35:51.871Z,2.07
2019-04-29T03:36:52.120Z,2.06
2019-04-29T03:37:52.335Z,2.05
2019-04-29T03:38:52.739Z,2.05
2019-04-29T03:39:52.967Z,2.05
2019-04-29T03:40:53.295Z,2.04
2019-04-29T03:41:53.542Z,2.02
2019-04-29T03:42:53.795Z,2.02
2019-04-29T03:43:53.981Z,2.02
2019-04-29T03:44:54.229Z,2.04
2019-04-29T03:45:54.434Z,2.02
2019-04-29T03:46:55.048Z,2.02
2019-04-29T03:47:55.287Z,2.01
2019-04-29T03:48:55.678Z,2.02
2019-04-29T03:49:56.030Z,2.01
2019-04-29T03:50:56.431Z,2.00
2019-04-29T03:51:56.684Z,2.00
2019-04-29T03:52:56.951Z,1.99
2019-04-29T03:53:57.190Z,1.98
2019-04-29T03:54:57.645Z,1.98
2019-04-29T03:55:57.922Z,1.98
2019-04-29T03:56:58.226Z,1.97
2019-04-29T03:57:58.453Z,1.96
2019-04-29T03:58:58.679Z,1.96
2019-04-29T03:59:59.000Z,1.94
2019-04-29T04:00:59.303Z,1.94
2019-04-29T04:01:59.353Z,1.95
2019-04-29T04:02:59.372Z,1.96
2019-04-29T04:03:59.525Z,1.95
2019-04-29T04:04:59.809Z,1.94
2019-04-29T04:05:59.978Z,1.93
2019-04-29T04:07:03.881Z,1.93
2019-04-29T04:08:00.566Z,1.92
2019-04-29T04:09:06.328Z,1.91
2019-04-29T04:10:01.009Z,1.91
2019-04-29T04:11:01.595Z,1.91
2019-04-29T04:12:01.629Z,1.91
2019-04-29T04:13:01.774Z,1.91
2019-04-29T04:14:01.919Z,1.92
2019-04-29T04:15:02.162Z,1.92
2019-04-29T04:16:02.257Z,1.94
2019-04-29T04:17:02.546Z,1.95
2019-04-29T04:18:02.287Z,1.98
2019-04-29T04:19:02.796Z,2.00
2019-04-29T04:20:03.176Z,2.02
2019-04-29T04:22:03.239Z,2.05
2019-04-29T04:23:03.267Z,2.09
2019-04-29T04:24:03.056Z,2.09
2019-04-29T04:25:03.847Z,2.10
2019-04-29T04:26:04.913Z,2.09
2019-04-29T04:27:04.150Z,2.10
2019-04-29T04:28:03.858Z,2.10
2019-04-29T04:29:04.516Z,2.11
2019-04-29T04:30:04.641Z,2.12
2019-04-29T04:31:07.019Z,2.13
2019-04-29T04:32:05.152Z,2.13
2019-04-29T04:33:05.627Z,2.13
2019-04-29T04:34:06.985Z,2.14
2019-04-29T04:35:06.455Z,2.15
2019-04-29T04:36:06.709Z,2.16
2019-04-29T04:37:09.748Z,2.18
2019-04-29T04:38:06.995Z,2.20
2019-04-29T04:40:07.561Z,2.27
2019-04-29T04:41:07.539Z,2.27
2019-04-29T04:42:07.794Z,2.28
2019-04-29T04:43:08.264Z,2.29
2019-04-29T04:44:08.728Z,2.30
2019-04-29T04:45:08.962Z,2.32
2019-04-29T04:46:09.373Z,2.33
2019-04-29T04:47:09.915Z,2.36
2019-04-29T04:48:09.953Z,2.38
2019-04-29T04:49:10.030Z,2.41
2019-04-29T04:50:10.187Z,2.43
2019-04-29T04:51:10.627Z,2.46
2019-04-29T04:52:10.916Z,2.48
2019-04-29T04:53:11.181Z,2.58
2019-04-29T04:54:11.434Z,2.58
2019-04-29T04:55:11.873Z,2.60
2019-04-29T04:56:12.268Z,2.61
2019-04-29T04:57:12.566Z,2.63
2019-04-29T04:58:12.676Z,2.65
2019-04-29T04:59:13.137Z,2.68
2019-04-29T05:00:12.956Z,2.71
2019-04-29T05:01:13.352Z,2.74
2019-04-29T05:02:13.353Z,2.77
2019-04-29T05:03:13.603Z,2.89
2019-04-29T05:04:13.934Z,2.90
2019-04-29T05:05:14.531Z,2.98
2019-04-29T05:06:14.420Z,2.98
2019-04-29T05:07:14.847Z,3.00
2019-04-29T05:08:15.178Z,3.03
2019-04-29T05:09:15.568Z,3.06
2019-04-29T05:10:15.886Z,3.22
2019-04-29T05:11:15.808Z,3.23
2019-04-29T05:12:15.790Z,3.25
2019-04-29T05:13:27.377Z,3.28
2019-04-29T05:14:16.504Z,3.32
2019-04-29T05:15:16.932Z,3.36
2019-04-29T05:16:17.405Z,3.41
2019-04-29T05:17:17.871Z,3.45
2019-04-29T05:18:18.097Z,3.51
2019-04-29T05:19:18.328Z,3.56
2019-04-29T05:20:18.558Z,3.62
2019-04-29T05:21:18.863Z,3.68
2019-04-29T05:22:19.085Z,3.73
2019-04-29T05:23:19.476Z,3.79
2019-04-29T05:24:19.689Z,3.85
2019-04-29T05:25:19.937Z,3.91
2019-04-29T05:26:20.190Z,3.97
2019-04-29T05:27:20.520Z,4.03
2019-04-29T05:28:20.811Z,4.10
2019-04-29T05:29:20.904Z,4.17
2019-04-29T05:30:21.294Z,4.25
2019-04-29T05:31:21.301Z,4.32
2019-04-29T05:32:21.692Z,4.39
2019-04-29T05:33:21.964Z,4.47
2019-04-29T05:34:22.199Z,4.54
2019-04-29T05:35:24.812Z,4.62
2019-04-29T05:36:23.082Z,4.70
2019-04-29T05:37:23.025Z,5.02
2019-04-29T05:38:23.222Z,5.09
2019-04-29T05:39:23.531Z,5.11
2019-04-29T05:40:23.914Z,5.14
2019-04-29T05:41:23.905Z,5.18
2019-04-29T05:42:24.111Z,5.23
2019-04-29T05:43:27.240Z,5.29
2019-04-29T05:44:24.487Z,5.36
2019-04-29T05:45:24.814Z,5.42
2019-04-29T05:46:24.785Z,5.68
2019-04-29T05:47:25.191Z,5.69
2019-04-29T05:48:27.674Z,5.72
2019-04-29T05:49:25.730Z,5.75
2019-04-29T05:50:26.013Z,5.79
2019-04-29T05:51:27.190Z,5.98
2019-04-29T05:52:29.846Z,5.99
2019-04-29T05:53:26.601Z,6.09
2019-04-29T05:54:31.519Z,6.14
2019-04-29T05:55:27.236Z,6.22
2019-04-29T05:56:27.759Z,6.23
2019-04-29T05:57:28.011Z,6.25
2019-04-29T05:58:28.327Z,6.29
2019-04-29T05:59:28.575Z,6.44
2019-04-29T06:00:28.796Z,6.46
2019-04-29T06:01:29.140Z,6.56
2019-04-29T06:02:33.601Z,6.57
2019-04-29T06:03:33.480Z,6.67
2019-04-29T06:04:30.584Z,6.72
2019-04-29T06:05:30.700Z,6.76
2019-04-29T06:06:30.952Z,6.79
2019-04-29T06:07:31.322Z,6.80
2019-04-29T06:08:34.554Z,6.89
2019-04-29T06:09:31.833Z,6.90
2019-04-29T06:10:32.070Z,6.92
2019-04-29T06:11:32.329Z,6.94
2019-04-29T06:12:32.837Z,7.05
2019-04-29T06:13:32.776Z,7.06
2019-04-29T06:14:33.135Z,7.14
2019-04-29T06:15:33.379Z,7.15
2019-04-29T06:16:33.629Z,7.20
2019-04-29T06:17:33.874Z,7.22
2019-04-29T06:18:34.116Z,7.23
2019-04-29T06:19:35.107Z,7.37
2019-04-29T06:20:34.605Z,7.44
2019-04-29T06:21:34.981Z,7.46
2019-04-29T06:22:37.823Z,7.49
2019-04-29T06:23:35.875Z,7.52
2019-04-29T06:24:36.965Z,7.57
2019-04-29T06:25:36.431Z,7.62
2019-04-29T06:26:36.911Z,7.81
2019-04-29T06:27:37.162Z,7.85
2019-04-29T06:28:37.416Z,7.87
2019-04-29T06:29:37.886Z,7.90
2019-04-29T06:30:40.552Z,8.05
2019-04-29T06:31:38.146Z,8.10
2019-04-29T06:32:38.617Z,8.16
2019-04-29T06:33:38.935Z,8.21
2019-04-29T06:34:40.049Z,8.26
2019-04-29T06:35:39.520Z,8.27
2019-04-29T06:36:39.777Z,8.33
2019-04-29T06:37:40.041Z,8.39
2019-04-29T06:38:40.245Z,8.39
2019-04-29T06:39:40.561Z,8.44
2019-04-29T06:41:45.088Z,8.48
2019-04-29T06:42:40.840Z,8.54
2019-04-29T06:43:41.073Z,8.55
2019-04-29T06:44:44.398Z,8.57
2019-04-29T06:45:41.573Z,8.60
2019-04-29T06:46:41.934Z,8.76
2019-04-29T06:47:42.184Z,8.85
2019-04-29T06:48:42.421Z,8.87
2019-04-29T06:49:42.563Z,9.04
2019-04-29T06:50:42.458Z,9.10
2019-04-29T06:51:42.713Z,9.17
2019-04-29T06:52:43.039Z,9.20
2019-04-29T06:53:43.367Z,9.37
2019-04-29T06:54:43.660Z,9.39
2019-04-29T06:55:44.084Z,9.53
2019-04-29T06:56:44.773Z,9.55
2019-04-29T06:57:44.840Z,9.68
2019-04-29T06:58:45.348Z,9.73
2019-04-29T06:59:47.537Z,9.75
2019-04-29T07:00:45.735Z,9.87
2019-04-29T07:01:45.783Z,9.86
2019-04-29T07:02:49.962Z,9.88
2019-04-29T07:03:46.372Z,9.91
2019-04-29T07:04:46.754Z,9.95
2019-04-29T07:05:46.971Z,10.00
2019-04-29T07:06:57.288Z,10.07
2019-04-29T07:07:47.931Z,10.14
2019-04-29T07:08:48.333Z,10.21
2019-04-29T07:09:48.812Z,10.50
2019-04-29T07:10:48.619Z,10.57
2019-04-29T07:11:49.081Z,10.68
2019-04-29T07:12:49.296Z,10.69
2019-04-29T07:13:53.421Z,10.76
2019-04-29T07:14:49.926Z,10.77
2019-04-29T07:15:50.406Z,10.88
2019-04-29T07:16:50.903Z,10.93
2019-04-29T07:17:50.673Z,11.03
2019-04-29T07:18:53.613Z,11.05
2019-04-29T07:19:51.188Z,11.23
2019-04-29T07:20:51.543Z,11.32
2019-04-29T07:21:54.953Z,11.36
2019-04-29T07:22:51.624Z,11.38
2019-04-29T07:23:51.884Z,11.55
2019-04-29T07:24:52.164Z,11.55
2019-04-29T07:25:52.432Z,11.66
2019-04-29T07:26:52.498Z,11.75
2019-04-29T07:27:53.058Z,11.86
2019-04-29T07:28:55.552Z,11.93
2019-04-29T07:29:53.316Z,12.04
2019-04-29T07:31:02.641Z,12.01
2019-04-29T07:31:53.947Z,12.21
2019-04-29T07:32:54.189Z,12.36
2019-04-29T07:33:57.959Z,12.42
2019-04-29T07:34:54.715Z,12.51
2019-04-29T07:35:54.533Z,12.61
2019-04-29T07:36:57.640Z,12.68
2019-04-29T07:37:54.696Z,12.83
2019-04-29T07:38:56.662Z,12.99
2019-04-29T07:39:55.314Z,13.02
2019-04-29T07:40:55.744Z,13.27
2019-04-29T07:41:56.126Z,13.42
2019-04-29T07:42:56.368Z,13.55
2019-04-29T07:43:56.821Z,13.65
2019-04-29T07:44:57.051Z,13.76
2019-04-29T07:45:58.752Z,13.80
2019-04-29T07:47:01.846Z,13.96
2019-04-29T07:48:01.762Z,14.05
2019-04-29T07:49:01.823Z,14.18
2019-04-29T07:49:58.995Z,14.21
2019-04-29T07:51:03.508Z,14.27
2019-04-29T07:51:59.500Z,14.24
2019-04-29T07:52:59.985Z,14.17
2019-04-29T07:54:00.551Z,14.07
2019-04-29T07:55:00.348Z,14.10
2019-04-29T07:56:01.645Z,14.19
2019-04-29T07:57:01.011Z,14.35
2019-04-29T07:58:01.573Z,14.47
2019-04-29T07:59:02.993Z,14.58
2019-04-29T08:00:01.591Z,14.68
2019-04-29T08:01:01.820Z,14.74
2019-04-29T08:02:02.280Z,14.81
2019-04-29T08:03:02.681Z,14.88
2019-04-29T08:04:02.903Z,14.91
2019-04-29T08:05:02.904Z,15.06
2019-04-29T08:06:03.092Z,15.28
2019-04-29T08:07:03.067Z,15.33
2019-04-29T08:08:03.106Z,15.53
2019-04-29T08:09:07.786Z,15.58
2019-04-29T08:10:02.971Z,15.78
2019-04-29T08:11:03.547Z,15.89
2019-04-29T08:12:03.375Z,15.70
2019-04-29T08:13:03.917Z,15.81
2019-04-29T08:14:03.704Z,16.05
2019-04-29T08:15:07.747Z,16.08
2019-04-29T08:16:04.570Z,16.35
2019-04-29T08:17:04.621Z,16.51
2019-04-29T08:18:06.704Z,16.57
2019-04-29T08:19:05.205Z,16.72
2019-04-29T08:20:05.279Z,16.45
2019-04-29T08:21:05.140Z,16.62
2019-04-29T08:22:05.344Z,16.57
2019-04-29T08:23:05.810Z,16.48
2019-04-29T08:24:06.271Z,16.45
2019-04-29T08:25:06.618Z,16.53
2019-04-29T08:26:06.855Z,16.57
2019-04-29T08:27:07.096Z,16.78
2019-04-29T08:28:07.409Z,16.93
2019-04-29T08:29:07.654Z,17.08
2019-04-29T08:30:11.314Z,17.27
2019-04-29T08:31:08.179Z,17.42
2019-04-29T08:32:08.579Z,17.36
2019-04-29T08:33:12.075Z,17.48
2019-04-29T08:34:09.129Z,17.55
2019-04-29T08:35:09.763Z,17.69
2019-04-29T08:36:09.986Z,17.83
2019-04-29T08:37:10.216Z,18.04
2019-04-29T08:38:10.551Z,18.06
2019-04-29T08:39:10.801Z,18.18
2019-04-29T08:40:16.324Z,18.23
2019-04-29T08:41:11.542Z,18.33
2019-04-29T08:42:12.009Z,18.44
2019-04-29T08:43:15.923Z,18.43
2019-04-29T08:44:16.379Z,18.49
2019-04-29T08:45:12.875Z,18.69
2019-04-29T08:46:13.313Z,18.80
2019-04-29T08:47:13.631Z,18.79
2019-04-29T08:48:13.733Z,18.87
2019-04-29T08:49:14.815Z,18.92
2019-04-29T08:50:14.287Z,18.75
2019-04-29T08:51:14.079Z,18.87
2019-04-29T08:52:14.317Z,18.97
2019-04-29T08:53:14.778Z,18.86
2019-04-29T08:54:15.996Z,19.01
2019-04-29T08:55:15.753Z,19.01
2019-04-29T08:56:15.480Z,18.97
2019-04-29T08:57:16.025Z,18.97
2019-04-29T08:58:16.023Z,18.90
2019-04-29T08:59:16.268Z,18.87
2019-04-29T09:00:16.830Z,18.59
2019-04-29T09:01:16.572Z,18.60
2019-04-29T09:02:17.058Z,18.60
2019-04-29T09:03:18.778Z,18.67
2019-04-29T09:04:17.976Z,18.88
2019-04-29T09:05:18.213Z,18.99
2019-04-29T09:06:18.438Z,19.13
2019-04-29T09:07:22.081Z,19.11
2019-04-29T09:08:19.084Z,19.13
2019-04-29T09:09:28.800Z,19.27
2019-04-29T09:10:19.886Z,19.39
2019-04-29T09:11:20.121Z,19.59
2019-04-29T09:12:24.222Z,19.61
2019-04-29T09:13:20.990Z,19.69
2019-04-29T09:14:21.333Z,19.68
2019-04-29T09:15:21.563Z,19.81
2019-04-29T09:16:21.816Z,19.86
2019-04-29T09:17:22.060Z,19.74
2019-04-29T09:18:22.400Z,20.05
2019-04-29T09:19:22.650Z,20.21
2019-04-29T09:20:22.923Z,20.20
2019-04-29T09:21:23.167Z,20.00
2019-04-29T09:22:23.472Z,19.90
2019-04-29T09:23:23.928Z,19.85
2019-04-29T09:24:23.859Z,19.85
2019-04-29T09:25:26.377Z,19.87
2019-04-29T09:26:24.985Z,19.86
2019-04-29T09:27:25.137Z,19.57
2019-04-29T09:28:28.124Z,19.49
2019-04-29T09:29:26.120Z,19.12
2019-04-29T09:30:25.733Z,19.32
2019-04-29T09:31:25.958Z,19.48
2019-04-29T09:32:26.187Z,19.48
2019-04-29T09:33:26.650Z,19.33
2019-04-29T09:34:26.884Z,19.19
2019-04-29T09:35:28.776Z,19.13
2019-04-29T09:36:28.972Z,19.17
2019-04-29T09:37:27.439Z,19.22
2019-04-29T09:38:27.909Z,19.27
2019-04-29T09:39:42.015Z,19.27
2019-04-29T09:41:30.623Z,19.34
2019-04-29T09:42:30.849Z,19.40
2019-04-29T09:43:28.842Z,19.38
2019-04-29T09:44:29.461Z,19.39
2019-04-29T09:45:29.697Z,19.43
2019-04-29T09:46:33.967Z,19.34
2019-04-29T09:47:30.044Z,19.35
2019-04-29T09:48:30.276Z,19.34
2019-04-29T09:49:30.599Z,19.33
2019-04-29T09:50:34.245Z,19.44
2019-04-29T09:51:31.087Z,19.55
2019-04-29T09:52:31.310Z,19.71
2019-04-29T09:53:31.724Z,19.69
2019-04-29T09:54:31.967Z,19.76
2019-04-29T09:55:35.650Z,19.83
2019-04-29T09:56:34.707Z,19.94
2019-04-29T09:57:33.140Z,19.99
2019-04-29T09:58:33.438Z,19.99
2019-04-29T09:59:33.672Z,20.07
2019-04-29T10:00:36.321Z,20.19
2019-04-29T10:01:34.063Z,20.33
2019-04-29T10:02:34.533Z,20.44
2019-04-29T10:03:34.853Z,20.45
2019-04-29T10:04:34.829Z,20.42
2019-04-29T10:05:35.312Z,20.48
2019-04-29T10:06:35.308Z,20.57
2019-04-29T10:08:35.484Z,20.66
2019-04-29T10:09:35.744Z,20.65
2019-04-29T10:10:37.347Z,20.50
2019-04-29T10:11:36.052Z,20.66
2019-04-29T10:12:36.310Z,20.52
2019-04-29T10:13:36.686Z,20.49
2019-04-29T10:14:37.225Z,20.59
2019-04-29T10:15:37.213Z,20.62
2019-04-29T10:16:37.242Z,20.72
2019-04-29T10:17:37.500Z,20.82
2019-04-29T10:18:37.608Z,20.76
2019-04-29T10:20:37.874Z,20.75
2019-04-29T10:21:37.909Z,20.62
2019-04-29T10:22:38.137Z,20.68
2019-04-29T10:24:38.636Z,20.72
2019-04-29T10:25:38.888Z,20.66
2019-04-29T10:26:39.096Z,20.64
2019-04-29T10:27:39.320Z,20.59
2019-04-29T10:28:39.562Z,20.63
2019-04-29T10:29:40.093Z,20.56
2019-04-29T10:30:39.964Z,20.48
2019-04-29T10:31:40.271Z,20.41
2019-04-29T10:32:42.338Z,20.33
2019-04-29T10:33:40.660Z,20.22
2019-04-29T10:34:43.148Z,20.25
2019-04-29T10:35:45.157Z,20.23
2019-04-29T10:36:41.808Z,19.77
2019-04-29T10:37:42.374Z,19.64
2019-04-29T10:38:45.005Z,19.75
2019-04-29T10:39:43.079Z,19.70
2019-04-29T10:40:43.747Z,19.77
2019-04-29T10:41:43.843Z,19.76
2019-04-29T10:42:44.135Z,19.67
2019-04-29T10:43:44.585Z,19.62
2019-04-29T10:44:44.999Z,19.63
2019-04-29T10:45:45.041Z,19.68
2019-04-29T10:46:45.457Z,19.75
2019-04-29T10:47:45.925Z,19.81
2019-04-29T10:48:45.954Z,19.81
2019-04-29T10:49:46.998Z,19.78
2019-04-29T10:50:47.186Z,19.87
2019-04-29T10:51:46.972Z,19.97
2019-04-29T10:52:47.203Z,20.02
2019-04-29T10:53:50.856Z,19.89
2019-04-29T10:54:51.678Z,19.83
2019-04-29T10:55:48.403Z,19.86
2019-04-29T10:56:48.424Z,19.69
2019-04-29T10:57:49.686Z,19.57
2019-04-29T10:58:49.223Z,19.66
2019-04-29T10:59:50.260Z,19.72
2019-04-29T11:00:52.722Z,19.60
2019-04-29T11:02:00.644Z,19.69
2019-04-29T11:02:51.137Z,19.76
2019-04-29T11:03:50.815Z,19.60
2019-04-29T11:04:51.145Z,19.64
2019-04-29T11:06:00.347Z,19.69
2019-04-29T11:06:51.781Z,19.73
2019-04-29T11:07:51.705Z,19.36
2019-04-29T11:08:52.254Z,19.10
2019-04-29T11:09:52.675Z,19.28
2019-04-29T11:11:01.845Z,19.35
2019-04-29T11:11:52.898Z,19.30
2019-04-29T11:12:52.901Z,19.35
2019-04-29T11:13:53.178Z,19.24
2019-04-29T11:14:53.628Z,19.03
2019-04-29T11:15:53.870Z,18.90
2019-04-29T11:16:54.115Z,18.72
2019-04-29T11:17:59.412Z,18.85
2019-04-29T11:18:59.164Z,18.93
2019-04-29T11:19:55.362Z,18.90
2019-04-29T11:20:55.599Z,19.04
2019-04-29T11:21:55.751Z,19.12
2019-04-29T11:22:56.147Z,19.04
2019-04-29T11:23:56.550Z,19.21
2019-04-29T11:24:56.957Z,19.12
2019-04-29T11:25:56.878Z,19.40
2019-04-29T11:27:10.987Z,19.89
2019-04-29T11:27:57.482Z,20.03
2019-04-29T11:30:02.897Z,20.22
2019-04-29T11:30:57.775Z,20.12
2019-04-29T11:31:58.013Z,20.15
2019-04-29T11:33:00.031Z,20.47
2019-04-29T11:33:58.916Z,21.08
2019-04-29T11:34:59.214Z,21.19
2019-04-29T11:36:04.095Z,21.73
2019-04-29T11:36:59.750Z,22.11
2019-04-29T11:38:00.099Z,22.20
2019-04-29T11:39:00.214Z,21.65
2019-04-29T11:40:00.566Z,21.77
2019-04-29T11:41:01.350Z,21.78
2019-04-29T11:42:01.651Z,21.80
2019-04-29T11:43:01.520Z,21.52
2019-04-29T11:44:01.428Z,21.48
2019-04-29T11:45:03.641Z,21.64
2019-04-29T11:46:02.185Z,21.74
2019-04-29T11:47:02.743Z,21.35
2019-04-29T11:48:03.067Z,21.59
2019-04-29T11:49:03.112Z,21.74
2019-04-29T11:50:02.997Z,21.90
2019-04-29T11:51:03.449Z,22.00
2019-04-29T11:52:09.656Z,22.02
2019-04-29T11:53:03.958Z,22.25
2019-04-29T11:54:04.036Z,22.52
2019-04-29T11:55:04.393Z,22.60
2019-04-29T11:56:04.955Z,22.87
2019-04-29T11:57:05.185Z,23.08
2019-04-29T11:58:05.482Z,23.18
2019-04-29T11:59:05.724Z,23.62
2019-04-29T12:00:05.834Z,23.68
2019-04-29T12:01:08.637Z,24.32
2019-04-29T12:02:06.281Z,24.86
2019-04-29T12:03:06.567Z,25.30
2019-04-29T12:04:06.424Z,25.28
2019-04-29T12:05:08.667Z,25.16
2019-04-29T12:06:06.820Z,24.72
2019-04-29T12:07:06.813Z,24.61
2019-04-29T12:08:15.960Z,24.39
2019-04-29T12:09:07.745Z,24.42
2019-04-29T12:10:07.970Z,24.12
2019-04-29T12:11:07.774Z,24.12
2019-04-29T12:12:12.635Z,24.14
2019-04-29T12:13:08.507Z,24.11
2019-04-29T12:14:08.984Z,24.19
2019-04-29T12:15:09.100Z,24.38
2019-04-29T12:16:09.514Z,24.42
2019-04-29T12:17:09.535Z,24.34
2019-04-29T12:18:09.735Z,24.02
2019-04-29T12:19:09.883Z,23.72
2019-04-29T12:20:10.255Z,23.74
2019-04-29T12:21:10.480Z,23.63
2019-04-29T12:22:25.930Z,23.77
2019-04-29T12:23:15.747Z,23.83
2019-04-29T12:24:11.747Z,23.46
2019-04-29T12:25:11.500Z,23.44
2019-04-29T12:26:12.011Z,23.39
2019-04-29T12:27:14.904Z,23.23
2019-04-29T12:28:18.766Z,23.12
2019-04-29T12:29:13.589Z,22.79
2019-04-29T12:30:12.914Z,22.59
2019-04-29T12:31:13.404Z,22.10
2019-04-29T12:32:13.533Z,22.09
2019-04-29T12:33:13.589Z,21.86
2019-04-29T12:34:13.855Z,21.73
2019-04-29T12:35:16.751Z,21.47
2019-04-29T12:36:16.544Z,21.33
2019-04-29T12:37:15.135Z,21.28
2019-04-29T12:38:15.637Z,21.24
2019-04-29T12:39:19.813Z,21.30
2019-04-29T12:40:16.791Z,21.36
2019-04-29T12:41:21.032Z,21.36
2019-04-29T12:42:16.876Z,21.36
2019-04-29T12:43:17.765Z,21.29
2019-04-29T12:44:17.481Z,21.30
2019-04-29T12:45:19.602Z,21.24
2019-04-29T12:46:17.974Z,21.03
2019-04-29T12:47:26.232Z,21.03
2019-04-29T12:48:24.898Z,20.80
2019-04-29T12:49:19.071Z,20.86
2019-04-29T12:50:21.608Z,20.69
2019-04-29T12:51:19.345Z,20.57
2019-04-29T12:52:19.354Z,20.45
2019-04-29T12:53:19.108Z,20.43
2019-04-29T12:54:19.490Z,20.24
2019-04-29T12:55:24.901Z,20.18
2019-04-29T12:56:19.641Z,20.09
2019-04-29T12:57:23.503Z,19.92
2019-04-29T12:58:24.245Z,19.73
2019-04-29T12:59:20.296Z,19.62
2019-04-29T13:00:20.650Z,19.57
2019-04-29T13:01:20.826Z,19.48
2019-04-29T13:02:24.453Z,19.39
2019-04-29T13:03:21.431Z,19.33
2019-04-29T13:04:21.711Z,18.93
2019-04-29T13:05:21.737Z,18.87
2019-04-29T13:06:24.126Z,18.73
2019-04-29T13:07:22.743Z,18.74
2019-04-29T13:08:22.909Z,18.64
2019-04-29T13:09:23.204Z,18.45
2019-04-29T13:10:23.442Z,18.15
2019-04-29T13:11:35.676Z,17.98
2019-04-29T13:12:26.885Z,17.98
2019-04-29T13:13:24.266Z,17.74
2019-04-29T13:14:28.737Z,17.88
2019-04-29T13:15:24.864Z,17.93
2019-04-29T13:16:25.418Z,17.94
2019-04-29T13:17:26.638Z,17.99
2019-04-29T13:18:25.309Z,17.86